West Chesterfield, MA (01084)

9:53 PM EDT on August 01, 2015 (GMT -0400)
Chesterfield | | Change Station
CLOSE
Current Station
Personal Weather Station
Location: Chesterfield, MA
Elevation: 1190 ft
Nearby Weather Stations

Elev 1190 ft 42.36 °N, 72.85 °W | Updated 8 minutes ago

Clear
Clear
63.3 °F
Feels Like 63.3 °F
N
0.0
Wind Variable Wind from ESE
Gusts 0.0 mph

Today
High -- | Low -- °F
--% Chance of Precip.
Yesterday
High -- | Low -- °F
Precip. -- in
5:43 AM 8:11 PM
Waning Gibbous, 96% visible
Pressure 29.81 in
Visibility 10.0 miles
Clouds Clear
Dew Point 58 °F
Humidity 83%
Rainfall 0.30 in
Snow Depth Not available.
UV 0 out of 12
Pollen 7.20 out of 12
Air Quality Not available.
Flu Activity Not available.
METAR KBAF 020053Z 00000KT 10SM CLR 22/17 A2981 RMK AO2 SLP092 T02220172

More Conditions Fewer Conditions

Pressure 29.81 in
Visibility 10.0 miles
Clouds Clear
Dew Point 58 °F
Humidity 83%
Rainfall 0.30 in
Snow Depth Not available.
UV 0 out of 12
Pollen 7.20 out of 12
Air Quality Not available.
Flu Activity Not available.
METAR KBAF 020053Z 00000KT 10SM CLR 22/17 A2981 RMK AO2 SLP092 T02220172

More Conditions Fewer Conditions

10-Day Weather Forecast

×

Almanac

Astronomy

Aug. 01, 2015 Rise Set
Actual Time
Civil Twilight
Nautical Twilight
Astronomical Twilight
Moon
Length of Visible Light
Length of Day
Tomorrow will be .
, % of the Moon is Illuminated

Today's Extremes

State Highs State Lows

Community

WunderPhotos

Upload Photos

1,843,127 photos uploaded!

WunderBlogs® & News

Nearby

Air Quality

  Air Quality AQ Index Pollutant
Not available.

Snow Depth

Station Depth Elevation

Earthquake Activity

City Distance Mag. Time & Date
Minimum magnitude displayed is 2.5.

Coastal Water Temperatures

Place Temperature

Stations

Nearby Weather Stations

Station Location Temp. Windchill Dew Point Humidity Wind Precip. Elev Updated Type